createdAt,value
2022-12-18T00:01:26.724Z,42.78
2022-12-18T00:04:21.059Z,42.83
2022-12-18T00:07:06.549Z,30.95
2022-12-18T00:09:52.060Z,40.42
2022-12-18T00:12:37.637Z,29.38
2022-12-18T00:15:23.019Z,31.77
2022-12-18T00:18:09.058Z,38.47
2022-12-18T00:20:54.363Z,34.70
2022-12-18T00:23:42.286Z,27.40
2022-12-18T00:26:30.419Z,34.80
2022-12-18T00:29:19.684Z,34.72
2022-12-18T00:32:05.352Z,27.27
2022-12-18T00:34:50.690Z,39.63
2022-12-18T00:37:36.260Z,24.83
2022-12-18T00:40:21.780Z,35.00
2022-12-18T00:43:07.286Z,23.52
2022-12-18T00:45:52.737Z,32.60
2022-12-18T00:48:37.967Z,32.47
2022-12-18T00:51:23.582Z,24.95
2022-12-18T00:54:09.541Z,33.85
2022-12-18T00:56:56.164Z,42.92
2022-12-18T00:59:41.589Z,40.70
2022-12-18T01:02:27.067Z,40.47
2022-12-18T01:05:14.557Z,43.45
2022-12-18T01:08:00.463Z,56.58
2022-12-18T01:10:46.239Z,46.05
2022-12-18T01:13:31.561Z,36.17
2022-12-18T01:16:18.934Z,43.03
2022-12-18T01:19:04.546Z,40.30
2022-12-18T01:21:49.915Z,38.33
2022-12-18T01:24:35.499Z,42.85
2022-12-18T01:27:20.693Z,36.03
2022-12-18T01:30:06.959Z,40.47
2022-12-18T01:32:52.639Z,36.80
2022-12-18T01:35:43.486Z,43.00
2022-12-18T01:38:29.918Z,44.00
2022-12-18T01:41:17.606Z,41.95
2022-12-18T01:44:23.354Z,37.95
2022-12-18T01:47:08.775Z,34.45
2022-12-18T01:49:55.295Z,41.42
2022-12-18T01:52:43.807Z,44.45
2022-12-18T01:55:32.139Z,33.85
2022-12-18T01:58:18.179Z,40.92
2022-12-18T02:01:04.197Z,25.80
2022-12-18T02:03:52.752Z,32.08
2022-12-18T02:06:42.377Z,38.58
2022-12-18T02:10:02.004Z,37.42
2022-12-18T02:13:21.971Z,31.15
2022-12-18T02:16:31.757Z,37.00
2022-12-18T02:19:48.977Z,34.65
2022-12-18T02:22:45.990Z,34.03
2022-12-18T02:25:45.019Z,39.53
2022-12-18T02:28:36.064Z,38.15
2022-12-18T02:31:28.782Z,44.88
2022-12-18T02:34:15.258Z,34.05
2022-12-18T02:37:05.149Z,34.88
2022-12-18T02:39:56.339Z,31.35
2022-12-18T02:42:42.567Z,34.53
2022-12-18T02:45:29.960Z,31.27
2022-12-18T02:48:15.432Z,34.63
2022-12-18T02:51:18.220Z,43.15
2022-12-18T02:54:19.672Z,37.03
2022-12-18T02:57:38.642Z,33.45
2022-12-18T03:00:39.744Z,30.08
2022-12-18T03:03:31.204Z,43.03
2022-12-18T03:06:38.219Z,37.03
2022-12-18T03:09:32.907Z,31.33
2022-12-18T03:12:54.578Z,31.85
2022-12-18T03:15:48.060Z,33.92
2022-12-18T03:18:44.423Z,31.98
2022-12-18T03:21:36.908Z,33.67
2022-12-18T03:24:25.486Z,34.13
2022-12-18T03:27:15.798Z,29.80
2022-12-18T03:30:08.499Z,16.15
2022-12-18T03:33:02.062Z,35.00
2022-12-18T03:35:49.044Z,41.92
2022-12-18T03:38:37.005Z,33.72
2022-12-18T03:41:46.083Z,31.38
2022-12-18T03:45:06.395Z,29.88
2022-12-18T03:48:07.592Z,33.05
2022-12-18T03:50:57.873Z,31.42
2022-12-18T03:53:59.417Z,39.58
2022-12-18T03:56:57.698Z,33.35
2022-12-18T03:59:46.687Z,31.38
2022-12-18T04:02:37.810Z,24.55
2022-12-18T04:05:25.298Z,37.30
2022-12-18T04:08:11.479Z,18.38
2022-12-18T04:11:03.147Z,27.95
2022-12-18T04:13:49.254Z,34.08
2022-12-18T04:16:42.141Z,35.70
2022-12-18T04:19:31.649Z,34.88
2022-12-18T04:22:18.446Z,27.98
2022-12-18T04:25:07.824Z,29.63
2022-12-18T04:27:57.294Z,26.70
2022-12-18T04:30:42.851Z,17.70
2022-12-18T04:33:28.584Z,38.50
2022-12-18T04:36:13.915Z,36.15
2022-12-18T04:39:00.399Z,42.20
2022-12-18T04:41:45.838Z,29.15
2022-12-18T04:44:32.234Z,33.53
2022-12-18T04:47:17.516Z,40.25
2022-12-18T04:50:02.734Z,36.35
2022-12-18T04:52:47.940Z,46.08
2022-12-18T04:55:33.363Z,46.20
2022-12-18T04:58:18.736Z,33.97
2022-12-18T05:01:04.604Z,43.80
2022-12-18T05:03:52.414Z,31.58
2022-12-18T05:06:37.690Z,20.88
2022-12-18T05:09:23.951Z,20.70
2022-12-18T05:12:09.582Z,21.02
2022-12-18T05:14:54.789Z,22.50
2022-12-18T05:17:40.260Z,24.25
2022-12-18T05:20:26.636Z,25.35
2022-12-18T05:23:13.157Z,30.20
2022-12-18T05:26:01.205Z,39.85
2022-12-18T05:28:47.358Z,35.72
2022-12-18T05:31:38.923Z,35.42
2022-12-18T05:34:25.347Z,37.90
2022-12-18T05:37:10.897Z,24.10
2022-12-18T05:39:56.173Z,20.13
2022-12-18T05:42:41.490Z,35.75
2022-12-18T05:45:26.927Z,37.55
2022-12-18T05:48:13.503Z,31.77
2022-12-18T05:51:06.054Z,36.80
2022-12-18T05:56:36.852Z,40.00
2022-12-18T05:59:22.556Z,22.85
2022-12-18T06:02:08.195Z,48.90
2022-12-18T06:04:53.901Z,42.30
2022-12-18T06:07:39.410Z,40.50
2022-12-18T06:10:24.717Z,35.28
2022-12-18T06:13:10.466Z,42.08
2022-12-18T06:15:56.283Z,24.58
2022-12-18T06:18:41.994Z,42.10
2022-12-18T06:21:28.221Z,35.45
2022-12-18T06:24:13.834Z,44.70
2022-12-18T06:26:59.273Z,52.08
2022-12-18T06:29:45.398Z,37.42
2022-12-18T06:32:31.570Z,48.10
2022-12-18T06:35:17.531Z,50.95
2022-12-18T06:38:04.664Z,42.92
2022-12-18T06:40:50.381Z,44.78
2022-12-18T06:43:36.501Z,46.60
2022-12-18T06:46:22.535Z,39.30
2022-12-18T06:49:10.137Z,53.17
2022-12-18T06:51:55.458Z,19.55
2022-12-18T06:54:40.789Z,29.27
2022-12-18T06:57:27.667Z,30.25
2022-12-18T07:00:14.569Z,29.17
2022-12-18T07:03:00.182Z,30.27
2022-12-18T07:05:45.694Z,37.00
2022-12-18T07:08:32.299Z,23.30
2022-12-18T07:11:19.219Z,27.23
2022-12-18T07:14:05.100Z,22.73
2022-12-18T07:16:50.577Z,26.00
2022-12-18T07:19:35.913Z,47.47
2022-12-18T07:22:21.413Z,23.75
2022-12-18T07:25:07.641Z,32.05
2022-12-18T07:27:53.693Z,37.20
2022-12-18T07:30:39.505Z,26.15
2022-12-18T07:33:24.942Z,27.02
2022-12-18T07:36:11.579Z,12.65
2022-12-18T07:38:57.203Z,19.98
2022-12-18T07:42:02.998Z,19.33
2022-12-18T07:44:48.742Z,12.57
2022-12-18T07:47:37.528Z,13.15
2022-12-18T07:50:23.215Z,21.02
2022-12-18T07:53:08.544Z,12.98
2022-12-18T07:56:26.106Z,14.88
2022-12-18T07:59:07.249Z,17.77
2022-12-18T08:01:53.185Z,20.13
2022-12-18T08:04:39.008Z,17.63
2022-12-18T08:07:27.196Z,7.72
2022-12-18T08:10:14.840Z,14.18
2022-12-18T08:13:04.649Z,12.35
2022-12-18T08:16:05.705Z,23.42
2022-12-18T08:18:53.536Z,22.17
2022-12-18T08:21:38.982Z,12.13
2022-12-18T08:24:31.092Z,19.55
2022-12-18T08:27:32.486Z,14.55
2022-12-18T08:30:20.169Z,19.67
2022-12-18T08:33:06.627Z,19.95
2022-12-18T08:35:52.472Z,18.25
2022-12-18T08:38:38.448Z,21.15
2022-12-18T08:41:24.703Z,23.90
2022-12-18T08:44:29.570Z,25.23
2022-12-18T08:47:15.938Z,28.38
2022-12-18T08:50:01.844Z,22.00
2022-12-18T08:52:47.747Z,25.27
2022-12-18T08:55:34.453Z,17.58
2022-12-18T08:58:30.958Z,23.95
2022-12-18T09:01:25.341Z,25.02
2022-12-18T09:04:15.460Z,27.83
2022-12-18T09:07:01.235Z,27.63
2022-12-18T09:09:46.698Z,22.88
2022-12-18T09:12:32.913Z,29.67
2022-12-18T09:15:18.499Z,21.13
2022-12-18T09:18:03.924Z,29.40
2022-12-18T09:20:51.221Z,31.20
2022-12-18T09:23:36.930Z,22.23
2022-12-18T09:26:23.900Z,31.88
2022-12-18T09:29:10.129Z,33.08
2022-12-18T09:31:56.110Z,32.50
2022-12-18T09:34:41.841Z,37.65
2022-12-18T09:37:29.392Z,32.28
2022-12-18T09:40:17.228Z,22.75
2022-12-18T09:43:05.803Z,27.73
2022-12-18T09:46:00.274Z,26.60
2022-12-18T09:48:51.143Z,34.10
2022-12-18T09:51:39.855Z,29.17
2022-12-18T09:54:33.890Z,32.38
2022-12-18T09:57:23.375Z,25.98
2022-12-18T10:00:12.313Z,31.65
2022-12-18T10:03:14.142Z,24.23
2022-12-18T10:06:16.370Z,31.50
2022-12-18T10:09:28.371Z,24.60
2022-12-18T10:12:43.759Z,23.30
2022-12-18T10:16:00.733Z,25.50
2022-12-18T10:19:24.403Z,37.85
2022-12-18T10:26:15.616Z,27.38
2022-12-18T10:29:05.746Z,24.95
2022-12-18T10:31:51.590Z,24.35
2022-12-18T10:34:37.125Z,35.78
2022-12-18T10:37:26.347Z,22.65
2022-12-18T10:40:21.812Z,21.77
2022-12-18T10:43:15.955Z,30.73
2022-12-18T10:46:11.192Z,27.92
2022-12-18T10:48:58.734Z,33.22
2022-12-18T10:51:45.327Z,28.80
2022-12-18T10:54:33.846Z,27.95
2022-12-18T10:57:39.791Z,31.50
2022-12-18T11:00:31.351Z,22.95
2022-12-18T11:03:39.800Z,30.27
2022-12-18T11:06:29.144Z,21.83
2022-12-18T11:09:23.111Z,25.10
2022-12-18T11:12:19.907Z,22.05
2022-12-18T11:15:05.987Z,29.15
2022-12-18T11:17:53.058Z,26.75
2022-12-18T11:20:40.082Z,31.60
2022-12-18T11:23:27.214Z,27.00
2022-12-18T11:26:12.637Z,31.20
2022-12-18T11:29:18.376Z,24.55
2022-12-18T11:32:33.175Z,27.40
2022-12-18T11:35:39.472Z,28.60
2022-12-18T11:38:26.918Z,27.70
2022-12-18T11:41:20.027Z,28.75
2022-12-18T11:44:10.139Z,22.60
2022-12-18T11:47:09.340Z,30.05
2022-12-18T11:50:00.509Z,26.73
2022-12-18T11:52:57.293Z,19.98
2022-12-18T11:56:03.480Z,26.27
2022-12-18T11:59:17.673Z,29.52
2022-12-18T12:02:28.380Z,21.88
2022-12-18T12:05:40.465Z,29.05
2022-12-18T12:08:56.445Z,18.13
2022-12-18T12:12:13.959Z,29.45
2022-12-18T12:15:47.098Z,24.50
2022-12-18T12:18:46.215Z,26.15
2022-12-18T12:21:38.070Z,23.98
2022-12-18T12:24:58.017Z,18.60
2022-12-18T12:28:06.410Z,16.88
2022-12-18T12:31:05.886Z,32.17
2022-12-18T12:34:32.701Z,28.67
2022-12-18T12:37:40.417Z,48.55
2022-12-18T12:43:34.923Z,28.88
2022-12-18T12:46:23.086Z,28.48
2022-12-18T12:49:18.574Z,18.77
2022-12-18T12:52:13.271Z,22.88
2022-12-18T12:55:01.270Z,13.77
2022-12-18T12:58:24.667Z,22.10
2022-12-18T13:01:10.765Z,28.85
2022-12-18T13:04:15.495Z,22.33
2022-12-18T13:07:13.524Z,20.42
2022-12-18T13:10:27.200Z,16.50
2022-12-18T13:13:17.293Z,20.38
2022-12-18T13:19:00.161Z,20.90
2022-12-18T13:21:55.999Z,21.83
2022-12-18T13:24:41.845Z,19.95
2022-12-18T13:27:46.634Z,16.58
2022-12-18T13:30:33.312Z,20.15
2022-12-18T13:33:31.681Z,14.38
2022-12-18T13:36:17.873Z,19.02
2022-12-18T13:39:26.724Z,18.30
2022-12-18T13:42:36.671Z,16.38
2022-12-18T13:45:42.558Z,21.67
2022-12-18T13:48:31.751Z,24.13
2022-12-18T13:51:19.360Z,19.55
2022-12-18T13:54:38.857Z,20.20
2022-12-18T13:57:39.579Z,18.25
2022-12-18T14:00:29.921Z,17.83
2022-12-18T14:03:24.230Z,23.25
2022-12-18T14:06:13.816Z,26.55
2022-12-18T14:09:01.001Z,27.15
2022-12-18T14:11:49.983Z,27.98
2022-12-18T14:14:37.681Z,18.45
2022-12-18T14:17:23.992Z,23.13
2022-12-18T14:20:16.629Z,37.03
2022-12-18T14:23:02.473Z,36.00
2022-12-18T14:25:48.406Z,32.90
2022-12-18T14:28:35.066Z,28.15
2022-12-18T14:31:28.164Z,21.23
2022-12-18T14:34:17.591Z,20.70
2022-12-18T14:37:49.666Z,20.40
2022-12-18T14:41:41.375Z,34.22
2022-12-18T14:44:39.091Z,20.73
2022-12-18T14:47:35.484Z,20.02
2022-12-18T14:50:21.462Z,22.83
2022-12-18T14:53:07.085Z,19.60
2022-12-18T14:55:52.846Z,20.77
2022-12-18T14:58:38.495Z,19.70
2022-12-18T15:01:28.933Z,18.98
2022-12-18T15:04:28.987Z,13.93
2022-12-18T15:07:23.912Z,16.17
2022-12-18T15:10:10.670Z,16.10
2022-12-18T15:12:57.085Z,15.95
2022-12-18T15:15:46.059Z,14.98
2022-12-18T15:18:36.310Z,23.23
2022-12-18T15:21:22.378Z,16.48
2022-12-18T15:24:18.988Z,19.77
2022-12-18T15:27:05.153Z,15.25
2022-12-18T15:30:24.338Z,12.75
2022-12-18T15:33:30.738Z,10.77
2022-12-18T15:36:18.043Z,11.63
2022-12-18T15:39:15.323Z,14.55
2022-12-18T15:42:21.431Z,10.98
2022-12-18T15:45:13.800Z,15.52
2022-12-18T15:50:53.679Z,14.68
2022-12-18T15:53:39.950Z,23.02
2022-12-18T15:56:45.165Z,16.70
2022-12-18T15:59:30.713Z,22.83
2022-12-18T16:02:19.753Z,27.60
2022-12-18T16:05:15.445Z,22.00
2022-12-18T16:08:01.419Z,21.73
2022-12-18T16:10:48.458Z,25.38
2022-12-18T16:13:34.079Z,17.35
2022-12-18T16:16:20.116Z,21.98
2022-12-18T16:19:05.622Z,19.33
2022-12-18T16:21:53.007Z,17.30
2022-12-18T16:24:38.421Z,15.00
2022-12-18T16:27:25.274Z,20.30
2022-12-18T16:30:19.106Z,20.92
2022-12-18T16:33:04.583Z,18.77
2022-12-18T16:35:54.323Z,27.13
2022-12-18T16:38:40.081Z,21.48
2022-12-18T16:41:34.785Z,35.90
2022-12-18T16:44:21.192Z,27.13
2022-12-18T16:47:06.919Z,30.98
2022-12-18T16:49:54.687Z,31.90
2022-12-18T16:52:41.641Z,38.05
2022-12-18T16:55:27.052Z,33.60
2022-12-18T16:58:12.422Z,28.42
2022-12-18T17:00:58.110Z,25.25
2022-12-18T17:03:44.920Z,30.50
2022-12-18T17:06:35.246Z,38.13
2022-12-18T17:09:25.768Z,34.40
2022-12-18T17:12:11.818Z,36.83
2022-12-18T17:15:03.206Z,35.03
2022-12-18T17:17:53.788Z,27.75
2022-12-18T17:20:41.078Z,28.67
2022-12-18T17:23:28.214Z,39.80
2022-12-18T17:26:14.323Z,18.45
2022-12-18T17:29:00.150Z,26.38
2022-12-18T17:31:47.651Z,22.30
2022-12-18T17:34:33.815Z,15.63
2022-12-18T17:37:19.647Z,15.77
2022-12-18T17:40:06.208Z,12.45
2022-12-18T17:42:53.937Z,15.95
2022-12-18T17:45:41.170Z,17.20
2022-12-18T17:48:27.244Z,26.45
2022-12-18T17:51:15.137Z,20.60
2022-12-18T17:54:01.897Z,23.55
2022-12-18T17:56:48.415Z,23.73
2022-12-18T17:59:35.165Z,24.38
2022-12-18T18:02:21.227Z,16.65
2022-12-18T18:05:07.252Z,19.42
2022-12-18T18:07:53.202Z,23.38
2022-12-18T18:10:41.540Z,32.50
2022-12-18T18:13:47.059Z,19.13
2022-12-18T18:16:52.523Z,17.10
2022-12-18T18:19:38.693Z,19.42
2022-12-18T18:22:27.094Z,13.88
2022-12-18T18:25:13.088Z,23.73
2022-12-18T18:27:58.998Z,14.38
2022-12-18T18:30:49.678Z,18.25
2022-12-18T18:33:37.131Z,18.23
2022-12-18T18:36:24.111Z,18.38
2022-12-18T18:39:10.462Z,18.80
2022-12-18T18:41:56.483Z,15.05
2022-12-18T18:44:47.215Z,20.52
2022-12-18T18:47:34.292Z,17.85
2022-12-18T18:50:20.211Z,20.02
2022-12-18T18:53:05.887Z,15.20
2022-12-18T18:56:17.279Z,26.65
2022-12-18T18:58:57.170Z,32.83
2022-12-18T19:01:42.968Z,23.73
2022-12-18T19:04:29.224Z,28.00
2022-12-18T19:07:23.894Z,25.15
2022-12-18T19:10:16.268Z,26.23
2022-12-18T19:13:20.798Z,24.65
2022-12-18T19:16:09.695Z,37.40
2022-12-18T19:19:17.675Z,31.00
2022-12-18T19:22:10.657Z,30.42
2022-12-18T19:27:47.629Z,19.80
2022-12-18T19:30:43.833Z,24.63
2022-12-18T19:33:43.873Z,25.70
2022-12-18T19:36:31.736Z,23.83
2022-12-18T19:39:19.446Z,19.38
2022-12-18T19:42:05.478Z,20.13
2022-12-18T19:44:51.543Z,23.70
2022-12-18T19:47:37.596Z,24.83
2022-12-18T19:50:26.407Z,18.90
2022-12-18T19:53:14.605Z,20.50
2022-12-18T19:56:13.588Z,18.45
2022-12-18T19:58:59.772Z,13.70
2022-12-18T20:01:47.337Z,14.77
2022-12-18T20:04:33.801Z,16.38
2022-12-18T20:07:19.995Z,14.82
2022-12-18T20:10:09.260Z,18.10
2022-12-18T20:12:55.193Z,21.50
2022-12-18T20:15:45.263Z,15.93
2022-12-18T20:18:31.614Z,12.73
2022-12-18T20:21:17.680Z,29.08
2022-12-18T20:24:04.589Z,16.60
2022-12-18T20:26:50.842Z,28.90
2022-12-18T20:29:36.787Z,23.63
2022-12-18T20:32:22.414Z,15.30
2022-12-18T20:35:13.551Z,15.98
2022-12-18T20:38:02.399Z,14.85
2022-12-18T20:40:50.038Z,32.40
2022-12-18T20:43:36.904Z,15.13
2022-12-18T20:46:22.965Z,28.92
2022-12-18T20:49:10.167Z,36.50
2022-12-18T20:52:03.125Z,48.45
2022-12-18T20:54:48.476Z,40.28
2022-12-18T20:57:33.988Z,36.70
2022-12-18T21:00:21.300Z,10.82
2022-12-18T21:03:07.484Z,16.55
2022-12-18T21:05:53.698Z,11.27
2022-12-18T21:08:39.486Z,11.75
2022-12-18T21:11:50.433Z,13.27
2022-12-18T21:14:36.143Z,20.60
2022-12-18T21:17:21.572Z,24.88
2022-12-18T21:20:07.865Z,36.00
2022-12-18T21:22:54.981Z,22.48
2022-12-18T21:25:44.539Z,21.33
2022-12-18T21:28:33.036Z,14.38
2022-12-18T21:31:23.392Z,16.55
2022-12-18T21:34:17.847Z,23.80
2022-12-18T21:37:04.788Z,14.40
2022-12-18T21:39:50.675Z,11.60
2022-12-18T21:43:05.732Z,4.13
2022-12-18T21:45:59.728Z,19.48
2022-12-18T21:48:46.690Z,22.67
2022-12-18T21:51:35.784Z,8.98
2022-12-18T21:54:22.203Z,9.50
2022-12-18T21:57:08.624Z,5.78
2022-12-18T21:59:54.612Z,5.05
2022-12-18T22:02:40.661Z,6.20
2022-12-18T22:05:26.545Z,8.43
2022-12-18T22:08:16.351Z,7.85
2022-12-18T22:11:02.307Z,7.30
2022-12-18T22:13:48.220Z,16.42
2022-12-18T22:16:33.880Z,13.80
2022-12-18T22:19:21.404Z,13.50
2022-12-18T22:22:07.863Z,8.48
2022-12-18T22:24:53.894Z,12.40
2022-12-18T22:27:39.384Z,9.38
2022-12-18T22:30:24.913Z,5.00
2022-12-18T22:33:10.936Z,8.05
2022-12-18T22:35:56.260Z,8.00
2022-12-18T22:38:41.849Z,11.23
2022-12-18T22:41:27.556Z,5.53
2022-12-18T22:44:17.484Z,8.60
2022-12-18T22:47:06.829Z,9.35
2022-12-18T22:49:52.959Z,10.05
2022-12-18T22:52:38.853Z,11.25
2022-12-18T22:55:24.373Z,12.57
2022-12-18T22:58:09.874Z,11.13
2022-12-18T23:00:55.501Z,8.88
2022-12-18T23:03:40.980Z,10.63
2022-12-18T23:06:28.636Z,8.30
2022-12-18T23:09:20.026Z,5.63
2022-12-18T23:12:06.295Z,12.70
2022-12-18T23:14:52.068Z,11.85
2022-12-18T23:17:37.720Z,24.23
2022-12-18T23:20:23.507Z,29.77
2022-12-18T23:23:08.974Z,21.08
2022-12-18T23:26:01.152Z,15.27
2022-12-18T23:28:47.561Z,23.52
2022-12-18T23:31:36.195Z,18.00
2022-12-18T23:34:21.428Z,9.02
2022-12-18T23:37:07.039Z,9.55
2022-12-18T23:39:53.055Z,9.38
2022-12-18T23:42:38.462Z,7.82
2022-12-18T23:45:28.135Z,7.10
2022-12-18T23:48:18.802Z,15.40
2022-12-18T23:51:12.549Z,8.98
2022-12-18T23:54:01.270Z,10.50
2022-12-18T23:56:46.892Z,12.75
2022-12-18T23:59:32.834Z,13.02
